sensor_id;sensor_type;location;lat;lon;timestamp;P1;P4;P2;P0;N10;N4;N25;N1;N05;TS
43196;SPS30;28816;49.852;18.282;2023-07-28T00:01:20;1.690000;;1.730000;1.570000;;;;;;
43196;SPS30;28816;49.852;18.282;2023-07-28T00:06:22;1.570000;;1.600000;1.480000;;;;;;
43196;SPS30;28816;49.852;18.282;2023-07-28T00:11:25;2.100000;;2.070000;1.990000;;;;;;
43196;SPS30;28816;49.852;18.282;2023-07-28T00:16:26;1.550000;;1.560000;1.460000;;;;;;
43196;SPS30;28816;49.852;18.282;2023-07-28T00:21:28;1.890000;;1.850000;1.820000;;;;;;
43196;SPS30;28816;49.852;18.282;2023-07-28T00:26:30;1.590000;;1.600000;1.530000;;;;;;
43196;SPS30;28816;49.852;18.282;2023-07-28T00:31:33;2.140000;;2.160000;1.970000;;;;;;
43196;SPS30;28816;49.852;18.282;2023-07-28T00:36:35;1.600000;;1.610000;1.500000;;;;;;
43196;SPS30;28816;49.852;18.282;2023-07-28T00:41:37;1.290000;;1.250000;1.250000;;;;;;
43196;SPS30;28816;49.852;18.282;2023-07-28T00:46:39;1.330000;;1.300000;1.290000;;;;;;
43196;SPS30;28816;49.852;18.282;2023-07-28T00:51:41;1.250000;;1.250000;1.190000;;;;;;
43196;SPS30;28816;49.852;18.282;2023-07-28T00:56:43;1.370000;;1.390000;1.280000;;;;;;
43196;SPS30;28816;49.852;18.282;2023-07-28T01:01:46;2.170000;;2.160000;2.070000;;;;;;
43196;SPS30;28816;49.852;18.282;2023-07-28T01:06:48;1.350000;;1.330000;1.300000;;;;;;
43196;SPS30;28816;49.852;18.282;2023-07-28T01:11:57;1.950000;;1.920000;1.860000;;;;;;
43196;SPS30;28816;49.852;18.282;2023-07-28T01:16:59;1.790000;;1.760000;1.730000;;;;;;
43196;SPS30;28816;49.852;18.282;2023-07-28T01:22:01;1.620000;;1.620000;1.520000;;;;;;
43196;SPS30;28816;49.852;18.282;2023-07-28T01:27:45;1.890000;;1.930000;1.750000;;;;;;
43196;SPS30;28816;49.852;18.282;2023-07-28T01:32:47;1.400000;;1.390000;1.340000;;;;;;
43196;SPS30;28816;49.852;18.282;2023-07-28T01:37:49;1.820000;;1.810000;1.710000;;;;;;
43196;SPS30;28816;49.852;18.282;2023-07-28T01:42:51;1.800000;;1.770000;1.740000;;;;;;
43196;SPS30;28816;49.852;18.282;2023-07-28T01:47:54;1.530000;;1.500000;1.460000;;;;;;
43196;SPS30;28816;49.852;18.282;2023-07-28T01:52:55;1.760000;;1.820000;1.620000;;;;;;
43196;SPS30;28816;49.852;18.282;2023-07-28T01:57:58;1.660000;;1.630000;1.600000;;;;;;
43196;SPS30;28816;49.852;18.282;2023-07-28T02:03:01;2.010000;;2.010000;1.890000;;;;;;
43196;SPS30;28816;49.852;18.282;2023-07-28T02:08:03;1.830000;;1.830000;1.770000;;;;;;
43196;SPS30;28816;49.852;18.282;2023-07-28T02:13:05;1.850000;;1.840000;1.760000;;;;;;
43196;SPS30;28816;49.852;18.282;2023-07-28T02:18:07;2.100000;;2.120000;1.980000;;;;;;
43196;SPS30;28816;49.852;18.282;2023-07-28T02:23:09;1.520000;;1.500000;1.450000;;;;;;
43196;SPS30;28816;49.852;18.282;2023-07-28T02:28:12;1.980000;;2.000000;1.860000;;;;;;
43196;SPS30;28816;49.852;18.282;2023-07-28T02:33:14;1.970000;;1.960000;1.850000;;;;;;
43196;SPS30;28816;49.852;18.282;2023-07-28T02:38:15;1.650000;;1.640000;1.540000;;;;;;
43196;SPS30;28816;49.852;18.282;2023-07-28T02:43:17;2.040000;;2.080000;1.910000;;;;;;
43196;SPS30;28816;49.852;18.282;2023-07-28T02:48:20;1.730000;;1.710000;1.650000;;;;;;
43196;SPS30;28816;49.852;18.282;2023-07-28T02:53:21;2.070000;;2.060000;1.980000;;;;;;
43196;SPS30;28816;49.852;18.282;2023-07-28T02:58:24;2.310000;;2.270000;2.180000;;;;;;
43196;SPS30;28816;49.852;18.282;2023-07-28T03:03:27;1.890000;;1.890000;1.790000;;;;;;
43196;SPS30;28816;49.852;18.282;2023-07-28T03:08:30;1.990000;;1.980000;1.900000;;;;;;
43196;SPS30;28816;49.852;18.282;2023-07-28T03:13:32;2.030000;;2.030000;1.930000;;;;;;
43196;SPS30;28816;49.852;18.282;2023-07-28T03:18:34;2.420000;;2.420000;2.300000;;;;;;
43196;SPS30;28816;49.852;18.282;2023-07-28T03:23:36;2.090000;;2.100000;1.960000;;;;;;
43196;SPS30;28816;49.852;18.282;2023-07-28T03:28:38;2.180000;;2.170000;2.080000;;;;;;
43196;SPS30;28816;49.852;18.282;2023-07-28T03:33:40;2.260000;;2.270000;2.160000;;;;;;
43196;SPS30;28816;49.852;18.282;2023-07-28T03:38:42;1.980000;;1.990000;1.860000;;;;;;
43196;SPS30;28816;49.852;18.282;2023-07-28T03:43:43;2.020000;;2.010000;1.890000;;;;;;
43196;SPS30;28816;49.852;18.282;2023-07-28T03:48:45;2.050000;;2.110000;1.860000;;;;;;
43196;SPS30;28816;49.852;18.282;2023-07-28T03:53:47;2.250000;;2.280000;2.070000;;;;;;
43196;SPS30;28816;49.852;18.282;2023-07-28T03:58:49;2.310000;;2.270000;2.190000;;;;;;
43196;SPS30;28816;49.852;18.282;2023-07-28T04:03:51;3.290000;;3.230000;2.990000;;;;;;
43196;SPS30;28816;49.852;18.282;2023-07-28T04:08:54;3.010000;;2.950000;2.730000;;;;;;
43196;SPS30;28816;49.852;18.282;2023-07-28T04:13:56;3.100000;;3.100000;2.850000;;;;;;
43196;SPS30;28816;49.852;18.282;2023-07-28T04:18:57;2.560000;;2.560000;2.430000;;;;;;
43196;SPS30;28816;49.852;18.282;2023-07-28T04:23:59;3.110000;;3.080000;2.920000;;;;;;
43196;SPS30;28816;49.852;18.282;2023-07-28T04:29:02;3.170000;;3.100000;2.990000;;;;;;
43196;SPS30;28816;49.852;18.282;2023-07-28T04:34:03;2.380000;;2.420000;2.230000;;;;;;
43196;SPS30;28816;49.852;18.282;2023-07-28T04:39:05;2.060000;;2.190000;1.960000;;;;;;
43196;SPS30;28816;49.852;18.282;2023-07-28T04:44:07;2.670000;;2.640000;2.530000;;;;;;
43196;SPS30;28816;49.852;18.282;2023-07-28T04:49:09;2.330000;;2.300000;2.230000;;;;;;
43196;SPS30;28816;49.852;18.282;2023-07-28T04:54:11;2.390000;;2.390000;2.280000;;;;;;
43196;SPS30;28816;49.852;18.282;2023-07-28T04:59:13;2.010000;;2.060000;1.880000;;;;;;
43196;SPS30;28816;49.852;18.282;2023-07-28T05:04:16;2.430000;;2.410000;2.300000;;;;;;
43196;SPS30;28816;49.852;18.282;2023-07-28T05:09:17;2.340000;;2.320000;2.180000;;;;;;
43196;SPS30;28816;49.852;18.282;2023-07-28T05:14:19;2.870000;;2.880000;2.650000;;;;;;
43196;SPS30;28816;49.852;18.282;2023-07-28T05:19:22;2.390000;;2.400000;2.230000;;;;;;
43196;SPS30;28816;49.852;18.282;2023-07-28T05:24:23;2.730000;;2.710000;2.610000;;;;;;
43196;SPS30;28816;49.852;18.282;2023-07-28T05:29:25;2.440000;;2.400000;2.350000;;;;;;
43196;SPS30;28816;49.852;18.282;2023-07-28T05:34:27;2.440000;;2.470000;2.270000;;;;;;
43196;SPS30;28816;49.852;18.282;2023-07-28T05:39:29;2.090000;;2.100000;1.960000;;;;;;
43196;SPS30;28816;49.852;18.282;2023-07-28T05:44:32;2.510000;;2.480000;2.400000;;;;;;
43196;SPS30;28816;49.852;18.282;2023-07-28T05:49:34;2.080000;;2.090000;1.970000;;;;;;
43196;SPS30;28816;49.852;18.282;2023-07-28T05:54:35;2.070000;;2.060000;1.990000;;;;;;
43196;SPS30;28816;49.852;18.282;2023-07-28T05:59:38;2.440000;;2.400000;2.330000;;;;;;
43196;SPS30;28816;49.852;18.282;2023-07-28T06:04:40;2.290000;;2.360000;2.130000;;;;;;
43196;SPS30;28816;49.852;18.282;2023-07-28T06:09:42;2.350000;;2.360000;2.250000;;;;;;
43196;SPS30;28816;49.852;18.282;2023-07-28T06:14:44;1.630000;;1.630000;1.520000;;;;;;
43196;SPS30;28816;49.852;18.282;2023-07-28T06:19:46;2.110000;;2.090000;2.000000;;;;;;
43196;SPS30;28816;49.852;18.282;2023-07-28T06:24:48;2.010000;;2.030000;1.880000;;;;;;
43196;SPS30;28816;49.852;18.282;2023-07-28T06:29:49;2.120000;;2.100000;2.030000;;;;;;
43196;SPS30;28816;49.852;18.282;2023-07-28T06:34:52;2.730000;;2.740000;2.540000;;;;;;
43196;SPS30;28816;49.852;18.282;2023-07-28T06:39:54;2.600000;;2.590000;2.490000;;;;;;
43196;SPS30;28816;49.852;18.282;2023-07-28T06:44:55;2.230000;;2.220000;2.110000;;;;;;
43196;SPS30;28816;49.852;18.282;2023-07-28T06:49:57;1.990000;;1.990000;1.880000;;;;;;
43196;SPS30;28816;49.852;18.282;2023-07-28T06:55:00;2.340000;;2.320000;2.220000;;;;;;
43196;SPS30;28816;49.852;18.282;2023-07-28T07:00:01;2.080000;;2.110000;1.970000;;;;;;
43196;SPS30;28816;49.852;18.282;2023-07-28T07:05:04;2.370000;;2.400000;2.220000;;;;;;
43196;SPS30;28816;49.852;18.282;2023-07-28T07:10:06;2.250000;;2.230000;2.160000;;;;;;
43196;SPS30;28816;49.852;18.282;2023-07-28T07:15:09;2.270000;;2.230000;2.170000;;;;;;
43196;SPS30;28816;49.852;18.282;2023-07-28T07:20:11;2.200000;;2.190000;2.100000;;;;;;
43196;SPS30;28816;49.852;18.282;2023-07-28T07:25:13;2.660000;;2.620000;2.540000;;;;;;
43196;SPS30;28816;49.852;18.282;2023-07-28T07:30:15;2.400000;;2.390000;2.280000;;;;;;
43196;SPS30;28816;49.852;18.282;2023-07-28T07:35:17;2.720000;;2.710000;2.580000;;;;;;
43196;SPS30;28816;49.852;18.282;2023-07-28T07:40:22;2.260000;;2.230000;2.140000;;;;;;
43196;SPS30;28816;49.852;18.282;2023-07-28T07:45:24;2.250000;;2.270000;2.100000;;;;;;
43196;SPS30;28816;49.852;18.282;2023-07-28T07:50:26;2.230000;;2.230000;2.110000;;;;;;
43196;SPS30;28816;49.852;18.282;2023-07-28T07:55:28;2.180000;;2.180000;2.040000;;;;;;
43196;SPS30;28816;49.852;18.282;2023-07-28T08:00:31;2.270000;;2.260000;2.140000;;;;;;
43196;SPS30;28816;49.852;18.282;2023-07-28T08:05:33;2.080000;;2.040000;1.960000;;;;;;
43196;SPS30;28816;49.852;18.282;2023-07-28T08:10:35;2.330000;;2.300000;2.230000;;;;;;
43196;SPS30;28816;49.852;18.282;2023-07-28T08:15:38;2.250000;;2.230000;2.150000;;;;;;
43196;SPS30;28816;49.852;18.282;2023-07-28T08:20:42;2.090000;;2.110000;1.980000;;;;;;
43196;SPS30;28816;49.852;18.282;2023-07-28T08:25:44;1.810000;;1.820000;1.700000;;;;;;
43196;SPS30;28816;49.852;18.282;2023-07-28T08:30:46;2.130000;;2.090000;2.040000;;;;;;
43196;SPS30;28816;49.852;18.282;2023-07-28T08:35:53;2.420000;;2.420000;2.270000;;;;;;
43196;SPS30;28816;49.852;18.282;2023-07-28T08:40:56;2.380000;;2.360000;2.300000;;;;;;
43196;SPS30;28816;49.852;18.282;2023-07-28T08:45:59;3.000000;;2.980000;2.850000;;;;;;
43196;SPS30;28816;49.852;18.282;2023-07-28T08:51:01;2.370000;;2.390000;2.220000;;;;;;
43196;SPS30;28816;49.852;18.282;2023-07-28T08:56:03;2.020000;;2.000000;1.930000;;;;;;
43196;SPS30;28816;49.852;18.282;2023-07-28T09:01:05;1.870000;;1.840000;1.790000;;;;;;
43196;SPS30;28816;49.852;18.282;2023-07-28T09:06:08;2.630000;;2.630000;2.450000;;;;;;
43196;SPS30;28816;49.852;18.282;2023-07-28T09:11:10;1.860000;;1.850000;1.760000;;;;;;
43196;SPS30;28816;49.852;18.282;2023-07-28T09:16:13;1.850000;;1.830000;1.760000;;;;;;
43196;SPS30;28816;49.852;18.282;2023-07-28T09:21:17;1.890000;;1.910000;1.760000;;;;;;
43196;SPS30;28816;49.852;18.282;2023-07-28T09:26:20;1.980000;;1.980000;1.850000;;;;;;
43196;SPS30;28816;49.852;18.282;2023-07-28T09:31:22;2.100000;;2.120000;1.960000;;;;;;
43196;SPS30;28816;49.852;18.282;2023-07-28T09:36:28;2.290000;;2.300000;2.140000;;;;;;
43196;SPS30;28816;49.852;18.282;2023-07-28T09:41:31;2.350000;;2.350000;2.210000;;;;;;
43196;SPS30;28816;49.852;18.282;2023-07-28T09:46:34;2.410000;;2.400000;2.290000;;;;;;
43196;SPS30;28816;49.852;18.282;2023-07-28T09:51:47;2.110000;;2.090000;2.000000;;;;;;
43196;SPS30;28816;49.852;18.282;2023-07-28T09:56:53;2.450000;;2.450000;2.320000;;;;;;
43196;SPS30;28816;49.852;18.282;2023-07-28T10:01:55;2.270000;;2.250000;2.160000;;;;;;
43196;SPS30;28816;49.852;18.282;2023-07-28T10:06:58;2.110000;;2.090000;2.020000;;;;;;
43196;SPS30;28816;49.852;18.282;2023-07-28T10:12:00;2.020000;;2.000000;1.920000;;;;;;
43196;SPS30;28816;49.852;18.282;2023-07-28T10:17:03;1.960000;;1.950000;1.870000;;;;;;
43196;SPS30;28816;49.852;18.282;2023-07-28T10:22:05;1.750000;;1.720000;1.660000;;;;;;
43196;SPS30;28816;49.852;18.282;2023-07-28T10:27:09;1.970000;;1.960000;1.870000;;;;;;
43196;SPS30;28816;49.852;18.282;2023-07-28T10:32:11;1.780000;;1.790000;1.660000;;;;;;
43196;SPS30;28816;49.852;18.282;2023-07-28T10:37:25;1.550000;;1.560000;1.460000;;;;;;
43196;SPS30;28816;49.852;18.282;2023-07-28T10:42:27;1.570000;;1.590000;1.470000;;;;;;
43196;SPS30;28816;49.852;18.282;2023-07-28T10:47:31;1.690000;;1.700000;1.580000;;;;;;
43196;SPS30;28816;49.852;18.282;2023-07-28T10:52:33;1.660000;;1.620000;1.610000;;;;;;
43196;SPS30;28816;49.852;18.282;2023-07-28T10:57:38;1.090000;;1.090000;1.030000;;;;;;
43196;SPS30;28816;49.852;18.282;2023-07-28T11:02:41;1.200000;;1.190000;1.150000;;;;;;
43196;SPS30;28816;49.852;18.282;2023-07-28T11:07:44;1.640000;;1.620000;1.560000;;;;;;
43196;SPS30;28816;49.852;18.282;2023-07-28T11:12:46;1.040000;;1.040000;0.980000;;;;;;
43196;SPS30;28816;49.852;18.282;2023-07-28T11:17:49;1.330000;;1.310000;1.260000;;;;;;
43196;SPS30;28816;49.852;18.282;2023-07-28T11:22:52;1.410000;;1.410000;1.330000;;;;;;
43196;SPS30;28816;49.852;18.282;2023-07-28T11:27:55;1.590000;;1.550000;1.520000;;;;;;
43196;SPS30;28816;49.852;18.282;2023-07-28T11:32:57;1.170000;;1.160000;1.120000;;;;;;
43196;SPS30;28816;49.852;18.282;2023-07-28T11:37:59;1.360000;;1.360000;1.310000;;;;;;
43196;SPS30;28816;49.852;18.282;2023-07-28T11:43:01;1.450000;;1.460000;1.360000;;;;;;
43196;SPS30;28816;49.852;18.282;2023-07-28T11:48:04;1.500000;;1.510000;1.410000;;;;;;
43196;SPS30;28816;49.852;18.282;2023-07-28T11:53:06;1.560000;;1.550000;1.490000;;;;;;
43196;SPS30;28816;49.852;18.282;2023-07-28T11:58:09;1.540000;;1.540000;1.450000;;;;;;
43196;SPS30;28816;49.852;18.282;2023-07-28T12:03:11;1.550000;;1.560000;1.450000;;;;;;
43196;SPS30;28816;49.852;18.282;2023-07-28T12:08:13;1.500000;;1.540000;1.370000;;;;;;
43196;SPS30;28816;49.852;18.282;2023-07-28T12:13:15;1.290000;;1.290000;1.220000;;;;;;
43196;SPS30;28816;49.852;18.282;2023-07-28T12:18:17;1.400000;;1.410000;1.330000;;;;;;
43196;SPS30;28816;49.852;18.282;2023-07-28T12:23:20;1.550000;;1.570000;1.450000;;;;;;
43196;SPS30;28816;49.852;18.282;2023-07-28T12:28:22;1.740000;;1.750000;1.640000;;;;;;
43196;SPS30;28816;49.852;18.282;2023-07-28T12:33:24;1.420000;;1.400000;1.350000;;;;;;
43196;SPS30;28816;49.852;18.282;2023-07-28T12:38:27;1.480000;;1.420000;1.440000;;;;;;
43196;SPS30;28816;49.852;18.282;2023-07-28T12:43:30;1.130000;;1.140000;1.060000;;;;;;
43196;SPS30;28816;49.852;18.282;2023-07-28T12:48:32;0.940000;;0.900000;0.920000;;;;;;
43196;SPS30;28816;49.852;18.282;2023-07-28T12:53:35;0.870000;;0.860000;0.840000;;;;;;
43196;SPS30;28816;49.852;18.282;2023-07-28T12:58:37;0.720000;;0.750000;0.660000;;;;;;
43196;SPS30;28816;49.852;18.282;2023-07-28T13:03:39;0.850000;;0.870000;0.800000;;;;;;
43196;SPS30;28816;49.852;18.282;2023-07-28T13:08:41;0.910000;;0.910000;0.870000;;;;;;
43196;SPS30;28816;49.852;18.282;2023-07-28T13:13:43;1.320000;;1.320000;1.240000;;;;;;
43196;SPS30;28816;49.852;18.282;2023-07-28T13:18:46;1.020000;;1.030000;0.970000;;;;;;
43196;SPS30;28816;49.852;18.282;2023-07-28T13:23:47;0.920000;;0.920000;0.890000;;;;;;
43196;SPS30;28816;49.852;18.282;2023-07-28T13:28:50;0.960000;;0.960000;0.900000;;;;;;
43196;SPS30;28816;49.852;18.282;2023-07-28T13:33:52;1.480000;;1.490000;1.380000;;;;;;
43196;SPS30;28816;49.852;18.282;2023-07-28T13:38:55;1.290000;;1.270000;1.230000;;;;;;
43196;SPS30;28816;49.852;18.282;2023-07-28T13:43:56;1.480000;;1.470000;1.420000;;;;;;
43196;SPS30;28816;49.852;18.282;2023-07-28T13:48:59;1.630000;;1.620000;1.560000;;;;;;
43196;SPS30;28816;49.852;18.282;2023-07-28T13:54:01;1.550000;;1.540000;1.460000;;;;;;
43196;SPS30;28816;49.852;18.282;2023-07-28T13:59:03;1.590000;;1.600000;1.500000;;;;;;
43196;SPS30;28816;49.852;18.282;2023-07-28T14:04:05;1.300000;;1.300000;1.220000;;;;;;
43196;SPS30;28816;49.852;18.282;2023-07-28T14:09:07;1.280000;;1.260000;1.230000;;;;;;
43196;SPS30;28816;49.852;18.282;2023-07-28T14:14:09;1.500000;;1.500000;1.420000;;;;;;
43196;SPS30;28816;49.852;18.282;2023-07-28T14:19:12;1.340000;;1.350000;1.260000;;;;;;
43196;SPS30;28816;49.852;18.282;2023-07-28T14:24:14;1.490000;;1.480000;1.430000;;;;;;
43196;SPS30;28816;49.852;18.282;2023-07-28T14:29:17;1.670000;;1.650000;1.580000;;;;;;
43196;SPS30;28816;49.852;18.282;2023-07-28T14:34:19;1.610000;;1.610000;1.520000;;;;;;
43196;SPS30;28816;49.852;18.282;2023-07-28T14:39:21;1.780000;;1.770000;1.690000;;;;;;
43196;SPS30;28816;49.852;18.282;2023-07-28T14:44:23;1.840000;;1.840000;1.730000;;;;;;
43196;SPS30;28816;49.852;18.282;2023-07-28T14:49:26;1.510000;;1.490000;1.420000;;;;;;
43196;SPS30;28816;49.852;18.282;2023-07-28T14:54:28;1.410000;;1.400000;1.340000;;;;;;
43196;SPS30;28816;49.852;18.282;2023-07-28T14:59:30;1.570000;;1.520000;1.510000;;;;;;
43196;SPS30;28816;49.852;18.282;2023-07-28T15:04:33;1.230000;;1.230000;1.150000;;;;;;
43196;SPS30;28816;49.852;18.282;2023-07-28T15:09:35;0.810000;;0.820000;0.750000;;;;;;
43196;SPS30;28816;49.852;18.282;2023-07-28T15:14:37;1.210000;;1.210000;1.150000;;;;;;
43196;SPS30;28816;49.852;18.282;2023-07-28T15:19:39;1.100000;;1.080000;1.060000;;;;;;
43196;SPS30;28816;49.852;18.282;2023-07-28T15:24:41;1.520000;;1.520000;1.440000;;;;;;
43196;SPS30;28816;49.852;18.282;2023-07-28T15:29:44;1.280000;;1.290000;1.200000;;;;;;
43196;SPS30;28816;49.852;18.282;2023-07-28T15:34:45;1.360000;;1.350000;1.290000;;;;;;
43196;SPS30;28816;49.852;18.282;2023-07-28T15:39:48;1.060000;;1.070000;1.000000;;;;;;
43196;SPS30;28816;49.852;18.282;2023-07-28T15:44:51;1.160000;;1.140000;1.110000;;;;;;
43196;SPS30;28816;49.852;18.282;2023-07-28T15:49:53;1.090000;;1.120000;1.010000;;;;;;
43196;SPS30;28816;49.852;18.282;2023-07-28T15:54:55;1.030000;;1.030000;0.970000;;;;;;
43196;SPS30;28816;49.852;18.282;2023-07-28T15:59:57;0.910000;;0.950000;0.830000;;;;;;
43196;SPS30;28816;49.852;18.282;2023-07-28T16:05:00;0.920000;;0.900000;0.880000;;;;;;
43196;SPS30;28816;49.852;18.282;2023-07-28T16:10:02;1.170000;;1.170000;1.110000;;;;;;
43196;SPS30;28816;49.852;18.282;2023-07-28T16:15:05;1.250000;;1.250000;1.180000;;;;;;
43196;SPS30;28816;49.852;18.282;2023-07-28T16:20:08;1.150000;;1.120000;1.100000;;;;;;
43196;SPS30;28816;49.852;18.282;2023-07-28T16:25:11;1.410000;;1.440000;1.340000;;;;;;
43196;SPS30;28816;49.852;18.282;2023-07-28T16:30:13;1.230000;;1.270000;1.130000;;;;;;
43196;SPS30;28816;49.852;18.282;2023-07-28T16:35:15;1.120000;;1.130000;1.060000;;;;;;
43196;SPS30;28816;49.852;18.282;2023-07-28T16:40:18;0.900000;;0.900000;0.860000;;;;;;
43196;SPS30;28816;49.852;18.282;2023-07-28T16:45:20;1.230000;;1.240000;1.170000;;;;;;
43196;SPS30;28816;49.852;18.282;2023-07-28T16:50:23;1.180000;;1.160000;1.130000;;;;;;
43196;SPS30;28816;49.852;18.282;2023-07-28T16:55:25;1.280000;;1.280000;1.210000;;;;;;
43196;SPS30;28816;49.852;18.282;2023-07-28T17:00:27;1.470000;;1.460000;1.390000;;;;;;
43196;SPS30;28816;49.852;18.282;2023-07-28T17:05:29;1.330000;;1.360000;1.230000;;;;;;
43196;SPS30;28816;49.852;18.282;2023-07-28T17:10:31;1.350000;;1.350000;1.280000;;;;;;
43196;SPS30;28816;49.852;18.282;2023-07-28T17:15:33;1.640000;;1.620000;1.570000;;;;;;
43196;SPS30;28816;49.852;18.282;2023-07-28T17:20:35;1.470000;;1.460000;1.400000;;;;;;
43196;SPS30;28816;49.852;18.282;2023-07-28T17:25:36;1.050000;;1.040000;1.000000;;;;;;
43196;SPS30;28816;49.852;18.282;2023-07-28T17:30:39;1.750000;;1.780000;1.630000;;;;;;
43196;SPS30;28816;49.852;18.282;2023-07-28T17:35:41;1.400000;;1.420000;1.280000;;;;;;
43196;SPS30;28816;49.852;18.282;2023-07-28T17:40:43;1.510000;;1.530000;1.430000;;;;;;
43196;SPS30;28816;49.852;18.282;2023-07-28T17:45:45;1.040000;;1.060000;0.990000;;;;;;
43196;SPS30;28816;49.852;18.282;2023-07-28T17:50:48;1.790000;;1.780000;1.690000;;;;;;
43196;SPS30;28816;49.852;18.282;2023-07-28T17:55:50;1.470000;;1.480000;1.380000;;;;;;
43196;SPS30;28816;49.852;18.282;2023-07-28T18:00:52;1.920000;;1.940000;1.760000;;;;;;
43196;SPS30;28816;49.852;18.282;2023-07-28T18:05:54;1.380000;;1.390000;1.320000;;;;;;
43196;SPS30;28816;49.852;18.282;2023-07-28T18:10:56;1.630000;;1.640000;1.560000;;;;;;
43196;SPS30;28816;49.852;18.282;2023-07-28T18:15:58;1.980000;;1.960000;1.880000;;;;;;
43196;SPS30;28816;49.852;18.282;2023-07-28T18:21:00;1.820000;;1.780000;1.750000;;;;;;
43196;SPS30;28816;49.852;18.282;2023-07-28T18:26:02;1.870000;;1.880000;1.780000;;;;;;
43196;SPS30;28816;49.852;18.282;2023-07-28T18:31:04;1.720000;;1.750000;1.640000;;;;;;
43196;SPS30;28816;49.852;18.282;2023-07-28T18:36:07;1.700000;;1.680000;1.620000;;;;;;
43196;SPS30;28816;49.852;18.282;2023-07-28T18:41:09;1.800000;;1.780000;1.730000;;;;;;
43196;SPS30;28816;49.852;18.282;2023-07-28T18:46:11;1.960000;;2.000000;1.830000;;;;;;
43196;SPS30;28816;49.852;18.282;2023-07-28T18:51:13;1.920000;;1.890000;1.840000;;;;;;
43196;SPS30;28816;49.852;18.282;2023-07-28T18:56:15;1.890000;;1.910000;1.760000;;;;;;
43196;SPS30;28816;49.852;18.282;2023-07-28T19:01:18;2.020000;;2.040000;1.880000;;;;;;
43196;SPS30;28816;49.852;18.282;2023-07-28T19:06:20;1.590000;;1.570000;1.510000;;;;;;
43196;SPS30;28816;49.852;18.282;2023-07-28T19:11:22;1.700000;;1.730000;1.580000;;;;;;
43196;SPS30;28816;49.852;18.282;2023-07-28T19:16:25;1.930000;;1.900000;1.870000;;;;;;
43196;SPS30;28816;49.852;18.282;2023-07-28T19:21:27;1.760000;;1.760000;1.670000;;;;;;
43196;SPS30;28816;49.852;18.282;2023-07-28T19:26:30;1.690000;;1.710000;1.570000;;;;;;
43196;SPS30;28816;49.852;18.282;2023-07-28T19:31:32;1.850000;;1.820000;1.770000;;;;;;
43196;SPS30;28816;49.852;18.282;2023-07-28T19:36:35;2.220000;;2.220000;2.100000;;;;;;
43196;SPS30;28816;49.852;18.282;2023-07-28T19:41:37;1.900000;;1.870000;1.800000;;;;;;
43196;SPS30;28816;49.852;18.282;2023-07-28T19:46:40;2.070000;;2.040000;1.980000;;;;;;
43196;SPS30;28816;49.852;18.282;2023-07-28T19:51:42;2.210000;;2.170000;2.120000;;;;;;
43196;SPS30;28816;49.852;18.282;2023-07-28T19:56:45;1.530000;;1.560000;1.400000;;;;;;
43196;SPS30;28816;49.852;18.282;2023-07-28T20:01:48;1.620000;;1.610000;1.550000;;;;;;
43196;SPS30;28816;49.852;18.282;2023-07-28T20:06:50;1.300000;;1.280000;1.250000;;;;;;
43196;SPS30;28816;49.852;18.282;2023-07-28T20:11:52;1.550000;;1.530000;1.470000;;;;;;
43196;SPS30;28816;49.852;18.282;2023-07-28T20:16:54;1.930000;;1.930000;1.820000;;;;;;
43196;SPS30;28816;49.852;18.282;2023-07-28T20:21:57;2.500000;;2.490000;2.390000;;;;;;
43196;SPS30;28816;49.852;18.282;2023-07-28T20:26:59;1.860000;;1.840000;1.790000;;;;;;
43196;SPS30;28816;49.852;18.282;2023-07-28T20:32:02;2.020000;;1.980000;1.910000;;;;;;
43196;SPS30;28816;49.852;18.282;2023-07-28T20:37:04;1.840000;;1.850000;1.750000;;;;;;
43196;SPS30;28816;49.852;18.282;2023-07-28T20:42:07;1.950000;;1.930000;1.850000;;;;;;
43196;SPS30;28816;49.852;18.282;2023-07-28T20:47:09;1.830000;;1.840000;1.730000;;;;;;
43196;SPS30;28816;49.852;18.282;2023-07-28T20:52:11;2.450000;;2.480000;2.270000;;;;;;
43196;SPS30;28816;49.852;18.282;2023-07-28T20:57:13;2.090000;;2.100000;1.950000;;;;;;
43196;SPS30;28816;49.852;18.282;2023-07-28T21:02:16;2.490000;;2.490000;2.330000;;;;;;
43196;SPS30;28816;49.852;18.282;2023-07-28T21:07:18;2.680000;;2.670000;2.520000;;;;;;
43196;SPS30;28816;49.852;18.282;2023-07-28T21:12:20;2.050000;;2.040000;1.960000;;;;;;
43196;SPS30;28816;49.852;18.282;2023-07-28T21:17:22;1.880000;;1.900000;1.760000;;;;;;
43196;SPS30;28816;49.852;18.282;2023-07-28T21:22:25;2.270000;;2.290000;2.120000;;;;;;
43196;SPS30;28816;49.852;18.282;2023-07-28T21:27:27;2.290000;;2.280000;2.190000;;;;;;
43196;SPS30;28816;49.852;18.282;2023-07-28T21:32:29;2.040000;;2.030000;1.930000;;;;;;
43196;SPS30;28816;49.852;18.282;2023-07-28T21:37:31;2.540000;;2.530000;2.440000;;;;;;
43196;SPS30;28816;49.852;18.282;2023-07-28T21:42:34;2.560000;;2.570000;2.430000;;;;;;
43196;SPS30;28816;49.852;18.282;2023-07-28T21:47:35;2.370000;;2.370000;2.250000;;;;;;
43196;SPS30;28816;49.852;18.282;2023-07-28T21:52:38;2.550000;;2.510000;2.440000;;;;;;
43196;SPS30;28816;49.852;18.282;2023-07-28T21:57:42;2.660000;;2.660000;2.500000;;;;;;
43196;SPS30;28816;49.852;18.282;2023-07-28T22:02:45;2.530000;;2.490000;2.430000;;;;;;
43196;SPS30;28816;49.852;18.282;2023-07-28T22:07:47;2.790000;;2.790000;2.640000;;;;;;
43196;SPS30;28816;49.852;18.282;2023-07-28T22:12:50;2.670000;;2.680000;2.530000;;;;;;
43196;SPS30;28816;49.852;18.282;2023-07-28T22:17:52;2.910000;;2.910000;2.780000;;;;;;
43196;SPS30;28816;49.852;18.282;2023-07-28T22:22:55;2.380000;;2.360000;2.270000;;;;;;
43196;SPS30;28816;49.852;18.282;2023-07-28T22:27:58;3.220000;;3.200000;3.020000;;;;;;
43196;SPS30;28816;49.852;18.282;2023-07-28T22:33:00;2.480000;;2.470000;2.380000;;;;;;
43196;SPS30;28816;49.852;18.282;2023-07-28T22:38:03;2.770000;;2.780000;2.600000;;;;;;
43196;SPS30;28816;49.852;18.282;2023-07-28T22:43:05;2.990000;;2.940000;2.820000;;;;;;
43196;SPS30;28816;49.852;18.282;2023-07-28T22:48:08;3.220000;;3.210000;3.050000;;;;;;
43196;SPS30;28816;49.852;18.282;2023-07-28T22:53:10;3.420000;;3.430000;3.210000;;;;;;
43196;SPS30;28816;49.852;18.282;2023-07-28T22:58:12;3.330000;;3.330000;3.150000;;;;;;
43196;SPS30;28816;49.852;18.282;2023-07-28T23:03:15;3.120000;;3.140000;2.900000;;;;;;
43196;SPS30;28816;49.852;18.282;2023-07-28T23:08:17;2.830000;;2.870000;2.640000;;;;;;
43196;SPS30;28816;49.852;18.282;2023-07-28T23:13:19;3.250000;;3.210000;3.100000;;;;;;
43196;SPS30;28816;49.852;18.282;2023-07-28T23:18:21;2.430000;;2.420000;2.320000;;;;;;